createdAt,value
2022-11-19T00:01:20.415Z,99747.31
2022-11-19T00:03:52.148Z,99754.41
2022-11-19T00:06:24.719Z,99756.47
2022-11-19T00:08:52.064Z,99760.31
2022-11-19T00:11:40.276Z,99758.59
2022-11-19T00:14:12.669Z,99761.81
2022-11-19T00:16:40.533Z,99771.34
2022-11-19T00:19:07.795Z,99765.53
2022-11-19T00:21:34.501Z,99765.06
2022-11-19T00:24:01.472Z,99760.22
2022-11-19T00:26:28.398Z,99763.22
2022-11-19T00:28:55.687Z,99758.78
2022-11-19T00:31:22.965Z,99765.06
2022-11-19T00:33:50.832Z,99758.72
2022-11-19T00:36:18.296Z,99754.75
2022-11-19T00:38:45.423Z,99762.63
2022-11-19T00:41:12.589Z,99761.81
2022-11-19T00:43:48.853Z,99760.44
2022-11-19T00:46:18.931Z,99767.38
2022-11-19T00:48:47.319Z,99772.69
2022-11-19T00:51:14.673Z,99768.09
2022-11-19T00:53:42.682Z,99773.66
2022-11-19T00:56:12.257Z,99780.13
2022-11-19T00:58:39.791Z,99779.44
2022-11-19T01:01:08.049Z,99770.00
2022-11-19T01:03:36.762Z,99776.19
2022-11-19T01:06:04.060Z,99784.88
2022-11-19T01:08:31.056Z,99782.69
2022-11-19T01:11:08.162Z,99778.75
2022-11-19T01:13:35.600Z,99779.31
2022-11-19T01:16:11.838Z,99784.28
2022-11-19T01:18:40.625Z,99783.25
2022-11-19T01:21:08.665Z,99782.00
2022-11-19T01:23:35.441Z,99784.06
2022-11-19T01:26:02.321Z,99792.88
2022-11-19T01:28:29.883Z,99798.44
2022-11-19T01:30:56.876Z,99799.25
2022-11-19T01:33:24.065Z,99801.81
2022-11-19T01:36:02.147Z,99794.63
2022-11-19T01:38:30.216Z,99803.09
2022-11-19T01:40:58.411Z,99806.31
2022-11-19T01:43:41.489Z,99811.88
2022-11-19T01:46:09.012Z,99801.34
2022-11-19T01:48:39.383Z,99796.72
2022-11-19T01:51:12.523Z,99797.72
2022-11-19T01:53:40.379Z,99805.41
2022-11-19T01:56:09.019Z,99803.34
2022-11-19T01:58:42.432Z,99802.66
2022-11-19T02:01:10.839Z,99795.19
2022-11-19T02:03:39.964Z,99795.44
2022-11-19T02:06:08.080Z,99797.22
2022-11-19T02:08:43.428Z,99806.13
2022-11-19T02:11:58.723Z,99801.97
2022-11-19T02:14:33.613Z,99798.00
2022-11-19T02:17:27.472Z,99799.53
2022-11-19T02:20:28.233Z,99814.00
2022-11-19T02:23:04.260Z,99807.53
2022-11-19T02:25:40.459Z,99807.94
2022-11-19T02:28:35.089Z,99809.34
2022-11-19T02:31:17.140Z,99804.97
2022-11-19T02:34:09.531Z,99804.28
2022-11-19T02:36:44.187Z,99806.59
2022-11-19T02:39:19.520Z,99802.78
2022-11-19T02:41:55.165Z,99805.91
2022-11-19T02:44:54.350Z,99801.97
2022-11-19T02:47:28.359Z,99799.53
2022-11-19T02:50:01.505Z,99802.78
2022-11-19T02:52:28.844Z,99798.81
2022-11-19T02:54:55.654Z,99804.28
2022-11-19T02:57:22.367Z,99804.75
2022-11-19T03:00:19.944Z,99801.75
2022-11-19T03:03:11.393Z,99806.34
2022-11-19T03:05:44.436Z,99816.47
2022-11-19T03:08:11.814Z,99813.78
2022-11-19T03:10:56.975Z,99806.03
2022-11-19T03:13:45.840Z,99815.19
2022-11-19T03:16:41.872Z,99813.44
2022-11-19T03:19:30.260Z,99818.56
2022-11-19T03:22:03.997Z,99821.66
2022-11-19T03:24:37.459Z,99823.97
2022-11-19T03:27:18.419Z,99833.03
2022-11-19T03:29:49.731Z,99827.94
2022-11-19T03:32:28.444Z,99830.72
2022-11-19T03:35:01.681Z,99830.03
2022-11-19T03:37:31.543Z,99829.22
2022-11-19T03:40:01.086Z,99823.34
2022-11-19T03:42:28.384Z,99829.91
2022-11-19T03:45:07.669Z,99844.00
2022-11-19T03:47:36.158Z,99838.81
2022-11-19T03:50:17.299Z,99842.19
2022-11-19T03:52:44.791Z,99840.53
2022-11-19T03:55:11.974Z,99846.91
2022-11-19T03:57:39.176Z,99852.28
2022-11-19T04:00:07.111Z,99858.53
2022-11-19T04:02:40.423Z,99858.06
2022-11-19T04:05:07.976Z,99859.94
2022-11-19T04:07:34.782Z,99863.97
2022-11-19T04:10:01.783Z,99859.94
2022-11-19T04:12:28.513Z,99873.13
2022-11-19T04:14:55.221Z,99868.72
2022-11-19T04:17:21.967Z,99867.91
2022-11-19T04:19:48.800Z,99875.09
2022-11-19T04:22:15.525Z,99878.81
2022-11-19T04:24:42.333Z,99880.75
2022-11-19T04:27:09.290Z,99882.84
2022-11-19T04:29:36.114Z,99886.91
2022-11-19T04:32:02.893Z,99893.84
2022-11-19T04:34:29.617Z,99890.50
2022-11-19T04:36:56.490Z,99888.59
2022-11-19T04:39:23.449Z,99891.75
2022-11-19T04:41:50.359Z,99886.91
2022-11-19T04:44:17.172Z,99896.16
2022-11-19T04:46:44.029Z,99899.97
2022-11-19T04:49:10.735Z,99895.84
2022-11-19T04:51:37.675Z,99903.47
2022-11-19T04:54:04.800Z,99900.41
2022-11-19T04:56:31.618Z,99910.38
2022-11-19T04:58:58.616Z,99901.47
2022-11-19T05:01:25.503Z,99902.84
2022-11-19T05:03:52.430Z,99899.72
2022-11-19T05:06:19.243Z,99900.53
2022-11-19T05:08:46.236Z,99906.78
2022-11-19T05:11:13.349Z,99905.16
2022-11-19T05:13:40.249Z,99904.81
2022-11-19T05:16:07.203Z,99899.53
2022-11-19T05:18:34.398Z,99913.63
2022-11-19T05:21:01.272Z,99917.41
2022-11-19T05:23:28.254Z,99907.13
2022-11-19T05:25:55.063Z,99905.84
2022-11-19T05:28:32.830Z,99917.69
2022-11-19T05:31:05.435Z,99905.72
2022-11-19T05:33:34.267Z,99915.69
2022-11-19T05:36:01.545Z,99916.63
2022-11-19T05:38:28.452Z,99921.47
2022-11-19T05:40:55.309Z,99924.00
2022-11-19T05:43:22.472Z,99932.81
2022-11-19T05:45:49.402Z,99933.50
2022-11-19T05:48:16.297Z,99929.09
2022-11-19T05:50:43.150Z,99932.59
2022-11-19T05:53:10.291Z,99938.13
2022-11-19T05:55:37.154Z,99943.69
2022-11-19T05:58:04.195Z,99946.00
2022-11-19T06:00:31.113Z,99938.28
2022-11-19T06:02:57.806Z,99947.88
2022-11-19T06:05:24.844Z,99947.53
2022-11-19T06:07:51.602Z,99949.94
2022-11-19T06:10:18.492Z,99952.13
2022-11-19T06:12:45.926Z,99959.19
2022-11-19T06:15:13.857Z,99954.53
2022-11-19T06:17:40.691Z,99961.00
2022-11-19T06:20:10.852Z,99961.47
2022-11-19T06:22:38.564Z,99974.56
2022-11-19T06:25:06.347Z,99975.84
2022-11-19T06:27:33.473Z,99970.41
2022-11-19T06:30:00.379Z,99976.09
2022-11-19T06:32:27.573Z,99977.44
2022-11-19T06:34:54.741Z,99980.44
2022-11-19T06:37:21.529Z,99982.31
2022-11-19T06:39:48.244Z,99991.41
2022-11-19T06:42:33.527Z,99988.47
2022-11-19T06:45:00.286Z,99990.97
2022-11-19T06:47:27.038Z,100003.34
2022-11-19T06:49:53.955Z,100004.03
2022-11-19T06:52:20.810Z,99997.56
2022-11-19T06:54:47.792Z,100001.03
2022-11-19T06:57:14.694Z,100001.84
2022-11-19T06:59:41.551Z,99999.16
2022-11-19T07:02:11.016Z,100000.88
2022-11-19T07:04:38.156Z,100014.06
2022-11-19T07:07:05.514Z,100019.78
2022-11-19T07:09:32.399Z,100010.84
2022-11-19T07:11:59.149Z,100018.50
2022-11-19T07:14:25.854Z,100016.78
2022-11-19T07:16:52.570Z,100021.88
2022-11-19T07:19:19.715Z,100015.81
2022-11-19T07:21:46.684Z,100031.56
2022-11-19T07:24:16.817Z,100024.38
2022-11-19T07:26:44.190Z,100027.75
2022-11-19T07:29:13.907Z,100030.88
2022-11-19T07:31:41.803Z,100041.50
2022-11-19T07:34:10.517Z,100045.75
2022-11-19T07:36:38.005Z,100045.44
2022-11-19T07:39:05.852Z,100044.84
2022-11-19T07:41:51.450Z,100050.50
2022-11-19T07:44:18.969Z,100060.69
2022-11-19T07:46:46.018Z,100065.00
2022-11-19T07:49:13.378Z,100066.91
2022-11-19T07:51:40.501Z,100067.84
2022-11-19T07:54:09.387Z,100069.06
2022-11-19T07:56:36.394Z,100067.38
2022-11-19T07:59:03.754Z,100075.91
2022-11-19T08:01:30.752Z,100070.56
2022-11-19T08:03:57.543Z,100074.78
2022-11-19T08:06:26.497Z,100077.59
2022-11-19T08:08:55.258Z,100079.06
2022-11-19T08:11:22.676Z,100076.13
2022-11-19T08:13:49.688Z,100082.59
2022-11-19T08:16:35.660Z,100078.53
2022-11-19T08:19:03.990Z,100077.66
2022-11-19T08:21:30.925Z,100084.28
2022-11-19T08:23:57.824Z,100089.50
2022-11-19T08:26:24.913Z,100093.81
2022-11-19T08:28:51.834Z,100097.09
2022-11-19T08:31:18.852Z,100099.06
2022-11-19T08:33:45.640Z,100102.72
2022-11-19T08:36:12.958Z,100103.22
2022-11-19T08:38:39.958Z,100113.81
2022-11-19T08:41:25.963Z,100111.53
2022-11-19T08:43:52.720Z,100114.56
2022-11-19T08:46:19.816Z,100112.09
2022-11-19T08:48:46.783Z,100118.09
2022-11-19T08:51:15.004Z,100121.56
2022-11-19T08:53:41.828Z,100118.63
2022-11-19T08:56:10.177Z,100122.22
2022-11-19T08:58:39.794Z,100121.09
2022-11-19T09:01:14.401Z,100124.47
2022-11-19T09:03:41.914Z,100125.28
2022-11-19T09:06:08.925Z,100126.91
2022-11-19T09:08:36.184Z,100145.34
2022-11-19T09:11:08.328Z,100131.91
2022-11-19T09:13:35.237Z,100139.91
2022-11-19T09:16:02.740Z,100132.75
2022-11-19T09:18:30.714Z,100131.09
2022-11-19T09:20:58.075Z,100135.97
2022-11-19T09:23:26.970Z,100144.94
2022-11-19T09:25:58.689Z,100135.78
2022-11-19T09:28:26.188Z,100137.06
2022-11-19T09:31:01.277Z,100132.31
2022-11-19T09:33:31.120Z,100138.84
2022-11-19T09:35:57.908Z,100146.03
2022-11-19T09:38:24.972Z,100146.81
2022-11-19T09:40:54.428Z,100152.38
2022-11-19T09:43:43.751Z,100154.00
2022-11-19T09:46:25.607Z,100154.81
2022-11-19T09:48:56.072Z,100150.09
2022-11-19T09:51:30.114Z,100160.53
2022-11-19T09:54:20.356Z,100162.81
2022-11-19T09:56:50.206Z,100174.75
2022-11-19T09:59:26.211Z,100171.97
2022-11-19T10:01:53.601Z,100170.81
2022-11-19T10:04:23.463Z,100181.25
2022-11-19T10:07:08.494Z,100171.75
2022-11-19T10:09:57.048Z,100181.25
2022-11-19T10:12:24.495Z,100171.56
2022-11-19T10:15:10.804Z,100179.75
2022-11-19T10:17:47.756Z,100182.19
2022-11-19T10:20:28.783Z,100188.38
2022-11-19T10:23:22.093Z,100189.38
2022-11-19T10:25:53.441Z,100184.81
2022-11-19T10:28:26.472Z,100186.41
2022-11-19T10:30:59.243Z,100186.41
2022-11-19T10:33:28.253Z,100189.69
2022-11-19T10:36:02.811Z,100188.19
2022-11-19T10:38:35.435Z,100189.00
2022-11-19T10:41:10.647Z,100192.94
2022-11-19T10:43:41.982Z,100194.06
2022-11-19T10:46:12.961Z,100193.88
2022-11-19T10:48:46.346Z,100190.63
2022-11-19T10:51:49.470Z,100184.75
2022-11-19T10:54:28.631Z,100187.63
2022-11-19T10:56:56.848Z,100185.34
2022-11-19T10:59:27.113Z,100182.88
2022-11-19T11:01:59.876Z,100190.91
2022-11-19T11:04:29.876Z,100185.22
2022-11-19T11:07:05.085Z,100199.91
2022-11-19T11:09:43.491Z,100193.19
2022-11-19T11:12:32.003Z,100191.22
2022-11-19T11:15:07.808Z,100193.19
2022-11-19T11:17:36.629Z,100192.41
2022-11-19T11:20:07.567Z,100193.78
2022-11-19T11:22:36.021Z,100194.81
2022-11-19T11:25:07.216Z,100182.56
2022-11-19T11:27:35.854Z,100184.16
2022-11-19T11:30:11.972Z,100178.63
2022-11-19T11:32:40.569Z,100182.69
2022-11-19T11:35:32.860Z,100184.53
2022-11-19T11:38:01.724Z,100185.81
2022-11-19T11:40:29.497Z,100174.69
2022-11-19T11:42:56.854Z,100187.31
2022-11-19T11:45:37.476Z,100184.31
2022-11-19T11:48:18.019Z,100186.63
2022-11-19T11:50:46.406Z,100184.16
2022-11-19T11:53:17.152Z,100190.91
2022-11-19T11:55:43.944Z,100183.72
2022-11-19T11:58:34.564Z,100185.81
2022-11-19T12:01:19.220Z,100194.47
2022-11-19T12:03:55.531Z,100194.63
2022-11-19T12:06:33.812Z,100192.50
2022-11-19T12:09:16.597Z,100200.66
2022-11-19T12:12:03.475Z,100195.09
2022-11-19T12:14:38.095Z,100198.75
2022-11-19T12:17:07.435Z,100197.38
2022-11-19T12:19:52.621Z,100201.19
2022-11-19T12:22:37.444Z,100200.66
2022-11-19T12:25:27.233Z,100197.75
2022-11-19T12:28:09.016Z,100198.75
2022-11-19T12:30:45.358Z,100190.91
2022-11-19T12:33:36.092Z,100202.47
2022-11-19T12:36:05.642Z,100199.03
2022-11-19T12:38:57.486Z,100205.72
2022-11-19T12:41:55.168Z,100209.69
2022-11-19T12:44:36.333Z,100201.94
2022-11-19T12:47:05.782Z,100198.34
2022-11-19T12:49:50.992Z,100195.78
2022-11-19T12:52:38.198Z,100194.16
2022-11-19T12:55:18.594Z,100193.06
2022-11-19T12:57:59.547Z,100201.19
2022-11-19T13:00:29.365Z,100189.25
2022-11-19T13:03:16.522Z,100190.09
2022-11-19T13:06:08.347Z,100189.72
2022-11-19T13:08:54.151Z,100199.25
2022-11-19T13:11:36.603Z,100187.63
2022-11-19T13:14:27.821Z,100199.72
2022-11-19T13:16:56.140Z,100190.91
2022-11-19T13:19:29.526Z,100190.91
2022-11-19T13:21:59.240Z,100190.91
2022-11-19T13:24:31.200Z,100188.91
2022-11-19T13:27:04.271Z,100190.22
2022-11-19T13:29:45.574Z,100191.38
2022-11-19T13:32:25.875Z,100195.66
2022-11-19T13:35:20.436Z,100198.22
2022-11-19T13:37:58.004Z,100199.91
2022-11-19T13:40:44.304Z,100202.03
2022-11-19T13:43:36.836Z,100203.63
2022-11-19T13:46:22.673Z,100209.19
2022-11-19T13:49:04.496Z,100208.03
2022-11-19T13:51:38.214Z,100208.72
2022-11-19T13:54:08.095Z,100210.69
2022-11-19T13:56:39.566Z,100208.25
2022-11-19T13:59:07.388Z,100204.59
2022-11-19T14:02:15.553Z,100204.59
2022-11-19T14:05:00.652Z,100206.22
2022-11-19T14:07:36.047Z,100213.25
2022-11-19T14:10:37.979Z,100216.84
2022-11-19T14:13:13.953Z,100210.16
2022-11-19T14:16:11.222Z,100210.16
2022-11-19T14:19:00.136Z,100217.88
2022-11-19T14:21:45.387Z,100216.53
2022-11-19T14:24:46.020Z,100211.78
2022-11-19T14:27:26.643Z,100209.69
2022-11-19T14:29:57.919Z,100205.13
2022-11-19T14:32:30.690Z,100213.13
2022-11-19T14:35:04.550Z,100222.63
2022-11-19T14:37:37.234Z,100220.31
2022-11-19T14:40:13.042Z,100212.47
2022-11-19T14:43:18.560Z,100211.78
2022-11-19T14:46:04.661Z,100207.59
2022-11-19T14:48:33.417Z,100214.63
2022-11-19T14:51:09.202Z,100208.13
2022-11-19T14:53:47.126Z,100217.34
2022-11-19T14:56:15.826Z,100216.38
2022-11-19T14:59:01.683Z,100220.97
2022-11-19T15:01:28.680Z,100221.19
2022-11-19T15:03:59.936Z,100227.22
2022-11-19T15:06:28.139Z,100227.91
2022-11-19T15:09:00.793Z,100232.09
2022-11-19T15:12:00.361Z,100227.97
2022-11-19T15:14:30.151Z,100226.34
2022-11-19T15:16:59.666Z,100234.41
2022-11-19T15:19:34.400Z,100235.69
2022-11-19T15:22:25.304Z,100236.72
2022-11-19T15:25:00.672Z,100239.16
2022-11-19T15:27:45.501Z,100232.38
2022-11-19T15:30:23.134Z,100231.41
2022-11-19T15:33:01.260Z,100231.41
2022-11-19T15:35:34.486Z,100236.06
2022-11-19T15:38:18.487Z,100245.31
2022-11-19T15:40:49.662Z,100240.13
2022-11-19T15:43:19.121Z,100240.66
2022-11-19T15:45:51.490Z,100233.44
2022-11-19T15:49:00.235Z,100235.91
2022-11-19T15:51:26.946Z,100228.25
2022-11-19T15:54:05.400Z,100232.00
2022-11-19T15:56:36.735Z,100232.44
2022-11-19T15:59:06.620Z,100225.25
2022-11-19T16:01:34.532Z,100236.72
2022-11-19T16:04:07.841Z,100233.59
2022-11-19T16:06:36.160Z,100238.34
2022-11-19T16:09:06.711Z,100250.13
2022-11-19T16:11:56.538Z,100244.56
2022-11-19T16:14:47.408Z,100252.44
2022-11-19T16:17:41.669Z,100256.50
2022-11-19T16:20:11.530Z,100255.00
2022-11-19T16:23:04.591Z,100267.97
2022-11-19T16:25:33.949Z,100251.44
2022-11-19T16:28:03.058Z,100258.97
2022-11-19T16:30:38.195Z,100254.53
2022-11-19T16:33:05.258Z,100258.66
2022-11-19T16:35:33.444Z,100263.56
2022-11-19T16:38:01.725Z,100269.94
2022-11-19T16:40:49.438Z,100273.06
2022-11-19T16:43:16.882Z,100275.84
2022-11-19T16:45:45.741Z,100277.91
2022-11-19T16:48:52.581Z,100276.25
2022-11-19T16:51:41.481Z,100268.19
2022-11-19T16:54:11.089Z,100269.78
2022-11-19T16:56:45.802Z,100271.44
2022-11-19T16:59:21.543Z,100272.34
2022-11-19T17:01:54.314Z,100266.81
2022-11-19T17:04:23.968Z,100263.09
2022-11-19T17:06:50.831Z,100263.41
2022-11-19T17:09:42.322Z,100274.00
2022-11-19T17:12:22.893Z,100288.56
2022-11-19T17:14:55.864Z,100283.34
2022-11-19T17:17:42.041Z,100287.09
2022-11-19T17:20:29.527Z,100288.09
2022-11-19T17:23:02.113Z,100279.28
2022-11-19T17:25:29.236Z,100287.09
2022-11-19T17:28:00.289Z,100281.53
2022-11-19T17:30:33.328Z,100281.41
2022-11-19T17:33:02.603Z,100281.06
2022-11-19T17:35:42.590Z,100283.19
2022-11-19T17:38:09.836Z,100283.84
2022-11-19T17:40:36.882Z,100285.34
2022-11-19T17:43:28.122Z,100283.84
2022-11-19T17:45:55.115Z,100290.09
2022-11-19T17:48:24.217Z,100294.16
2022-11-19T17:50:54.555Z,100284.84
2022-11-19T17:53:22.967Z,100288.59
2022-11-19T17:55:52.802Z,100286.28
2022-11-19T17:58:19.810Z,100277.81
2022-11-19T18:00:47.309Z,100283.03
2022-11-19T18:03:15.386Z,100272.75
2022-11-19T18:05:47.305Z,100284.00
2022-11-19T18:08:17.734Z,100291.34
2022-11-19T18:10:46.956Z,100287.28
2022-11-19T18:13:19.727Z,100287.91
2022-11-19T18:15:46.852Z,100294.00
2022-11-19T18:18:13.791Z,100295.28
2022-11-19T18:20:41.682Z,100297.06
2022-11-19T18:23:13.368Z,100302.47
2022-11-19T18:25:40.633Z,100302.63
2022-11-19T18:28:07.481Z,100303.13
2022-11-19T18:30:34.945Z,100293.81
2022-11-19T18:33:02.182Z,100298.22
2022-11-19T18:35:30.717Z,100295.28
2022-11-19T18:37:57.432Z,100291.06
2022-11-19T18:40:24.369Z,100293.31
2022-11-19T18:43:13.885Z,100300.53
2022-11-19T18:45:40.638Z,100293.31
2022-11-19T18:48:07.683Z,100294.97
2022-11-19T18:50:34.618Z,100291.38
2022-11-19T18:53:01.294Z,100288.59
2022-11-19T18:55:28.245Z,100289.25
2022-11-19T18:57:55.033Z,100281.75
2022-11-19T19:00:21.880Z,100288.28
2022-11-19T19:02:48.660Z,100293.31
2022-11-19T19:05:15.428Z,100288.75
2022-11-19T19:07:42.178Z,100286.94
2022-11-19T19:10:27.595Z,100282.72
2022-11-19T19:12:54.467Z,100283.84
2022-11-19T19:15:21.147Z,100281.53
2022-11-19T19:17:47.908Z,100283.84
2022-11-19T19:20:15.101Z,100283.38
2022-11-19T19:22:41.872Z,100284.38
2022-11-19T19:25:09.772Z,100281.41
2022-11-19T19:27:36.822Z,100280.72
2022-11-19T19:30:04.848Z,100284.53
2022-11-19T19:32:31.744Z,100276.41
2022-11-19T19:34:58.743Z,100271.97
2022-11-19T19:37:25.562Z,100278.50
2022-11-19T19:39:52.339Z,100271.78
2022-11-19T19:42:19.336Z,100274.09
2022-11-19T19:44:46.270Z,100279.63
2022-11-19T19:47:13.081Z,100271.97
2022-11-19T19:49:40.173Z,100274.75
2022-11-19T19:52:07.118Z,100274.94
2022-11-19T19:54:34.072Z,100273.31
2022-11-19T19:57:00.913Z,100280.50
2022-11-19T19:59:27.792Z,100280.34
2022-11-19T20:01:55.805Z,100287.06
2022-11-19T20:04:22.579Z,100281.66
2022-11-19T20:06:51.243Z,100293.06
2022-11-19T20:09:18.070Z,100291.16
2022-11-19T20:11:45.052Z,100297.38
2022-11-19T20:14:11.923Z,100297.53
2022-11-19T20:16:40.714Z,100296.09
2022-11-19T20:19:09.280Z,100302.44
2022-11-19T20:21:36.631Z,100306.03
2022-11-19T20:24:11.524Z,100303.41
2022-11-19T20:26:40.316Z,100303.06
2022-11-19T20:29:07.569Z,100296.22
2022-11-19T20:31:35.031Z,100298.16
2022-11-19T20:34:05.281Z,100299.00
2022-11-19T20:36:35.109Z,100310.09
2022-11-19T20:39:02.271Z,100309.16
2022-11-19T20:41:47.731Z,100299.53
2022-11-19T20:44:22.396Z,100306.69
2022-11-19T20:47:00.789Z,100307.53
2022-11-19T20:49:33.694Z,100309.31
2022-11-19T20:52:00.794Z,100309.47
2022-11-19T20:54:28.597Z,100317.28
2022-11-19T20:56:56.760Z,100318.44
2022-11-19T20:59:26.253Z,100320.94
2022-11-19T21:01:55.064Z,100320.94
2022-11-19T21:04:23.395Z,100325.31
2022-11-19T21:06:50.267Z,100323.06
2022-11-19T21:09:19.621Z,100325.81
2022-11-19T21:11:47.574Z,100318.63
2022-11-19T21:14:20.537Z,100306.53
2022-11-19T21:16:47.800Z,100315.38
2022-11-19T21:19:15.741Z,100321.41
2022-11-19T21:21:42.998Z,100323.66
2022-11-19T21:24:09.878Z,100322.19
2022-11-19T21:26:36.689Z,100316.91
2022-11-19T21:29:03.807Z,100318.19
2022-11-19T21:31:39.866Z,100320.56
2022-11-19T21:34:12.110Z,100327.56
2022-11-19T21:36:40.220Z,100322.47
2022-11-19T21:39:08.014Z,100322.56
2022-11-19T21:41:35.738Z,100325.94
2022-11-19T21:44:03.735Z,100326.25
2022-11-19T21:46:30.928Z,100318.91
2022-11-19T21:48:57.870Z,100321.47
2022-11-19T21:51:25.418Z,100319.19
2022-11-19T21:53:59.380Z,100321.41
2022-11-19T21:56:33.853Z,100315.84
2022-11-19T21:59:03.947Z,100320.72
2022-11-19T22:01:30.957Z,100306.81
2022-11-19T22:03:57.885Z,100303.09
2022-11-19T22:06:24.620Z,100312.59
2022-11-19T22:08:51.391Z,100309.00
2022-11-19T22:11:31.018Z,100303.44
2022-11-19T22:14:04.197Z,100302.88
2022-11-19T22:16:33.536Z,100297.03
2022-11-19T22:19:00.598Z,100299.50
2022-11-19T22:21:29.200Z,100309.88
2022-11-19T22:23:57.736Z,100307.09
2022-11-19T22:26:25.197Z,100303.97
2022-11-19T22:28:51.974Z,100295.97
2022-11-19T22:31:18.958Z,100296.50
2022-11-19T22:33:47.921Z,100292.44
2022-11-19T22:36:14.953Z,100306.81
2022-11-19T22:38:41.776Z,100313.34
2022-11-19T22:41:11.910Z,100314.56
2022-11-19T22:43:40.332Z,100320.59
2022-11-19T22:46:08.841Z,100321.47
2022-11-19T22:48:36.222Z,100319.69
2022-11-19T22:51:08.011Z,100322.97
2022-11-19T22:53:38.351Z,100323.66
2022-11-19T22:56:07.400Z,100331.50
2022-11-19T22:58:35.687Z,100321.72
2022-11-19T23:01:03.913Z,100316.72
2022-11-19T23:03:31.140Z,100317.53
2022-11-19T23:05:59.286Z,100307.09
2022-11-19T23:08:26.440Z,100317.19
2022-11-19T23:11:01.355Z,100316.72
2022-11-19T23:13:32.828Z,100321.78
2022-11-19T23:16:10.071Z,100325.91
2022-11-19T23:18:39.086Z,100333.44
2022-11-19T23:21:11.473Z,100335.59
2022-11-19T23:23:38.587Z,100342.28
2022-11-19T23:26:06.978Z,100326.97
2022-11-19T23:28:35.755Z,100323.72
2022-11-19T23:31:14.675Z,100328.28
2022-11-19T23:33:42.006Z,100335.69
2022-11-19T23:36:18.157Z,100329.16
2022-11-19T23:38:45.767Z,100333.56
2022-11-19T23:41:14.664Z,100337.69
2022-11-19T23:43:42.373Z,100334.72
2022-11-19T23:46:13.635Z,100325.91
2022-11-19T23:48:42.667Z,100329.81
2022-11-19T23:51:13.463Z,100327.19
2022-11-19T23:53:40.740Z,100319.38
2022-11-19T23:56:08.098Z,100326.06
2022-11-19T23:58:35.485Z,100319.72
